sensor_id;sensor_type;location;lat;lon;timestamp;temperature;humidity
9497;DHT22;4786;51.270;4.456;2023-01-24T00:00:39;3.90;99.90
9497;DHT22;4786;51.270;4.456;2023-01-24T00:03:06;3.90;99.90
9497;DHT22;4786;51.270;4.456;2023-01-24T00:05:41;3.90;99.90
9497;DHT22;4786;51.270;4.456;2023-01-24T00:08:07;3.90;99.90
9497;DHT22;4786;51.270;4.456;2023-01-24T00:10:33;4.00;99.90
9497;DHT22;4786;51.270;4.456;2023-01-24T00:12:59;3.90;99.90
9497;DHT22;4786;51.270;4.456;2023-01-24T00:15:26;4.10;99.90
9497;DHT22;4786;51.270;4.456;2023-01-24T00:17:52;3.90;99.90
9497;DHT22;4786;51.270;4.456;2023-01-24T00:20:18;4.00;99.90
9497;DHT22;4786;51.270;4.456;2023-01-24T00:22:44;4.00;99.90
9497;DHT22;4786;51.270;4.456;2023-01-24T00:25:10;4.20;99.90
9497;DHT22;4786;51.270;4.456;2023-01-24T00:27:36;4.00;99.90
9497;DHT22;4786;51.270;4.456;2023-01-24T00:30:03;4.10;99.90
9497;DHT22;4786;51.270;4.456;2023-01-24T00:32:31;3.90;99.90
9497;DHT22;4786;51.270;4.456;2023-01-24T00:34:57;3.80;99.90
9497;DHT22;4786;51.270;4.456;2023-01-24T00:37:23;3.70;99.90
9497;DHT22;4786;51.270;4.456;2023-01-24T00:39:49;3.70;99.90
9497;DHT22;4786;51.270;4.456;2023-01-24T00:42:15;3.70;99.90
9497;DHT22;4786;51.270;4.456;2023-01-24T00:44:41;3.60;99.90
9497;DHT22;4786;51.270;4.456;2023-01-24T00:47:07;3.60;99.90
9497;DHT22;4786;51.270;4.456;2023-01-24T00:49:33;3.80;99.90
9497;DHT22;4786;51.270;4.456;2023-01-24T00:51:59;3.70;99.90
9497;DHT22;4786;51.270;4.456;2023-01-24T00:54:25;4.00;99.90
9497;DHT22;4786;51.270;4.456;2023-01-24T00:56:51;3.90;99.90
9497;DHT22;4786;51.270;4.456;2023-01-24T00:59:17;3.70;99.90
9497;DHT22;4786;51.270;4.456;2023-01-24T01:01:43;3.70;99.90
9497;DHT22;4786;51.270;4.456;2023-01-24T01:04:10;3.70;99.90
9497;DHT22;4786;51.270;4.456;2023-01-24T01:06:36;3.70;99.90
9497;DHT22;4786;51.270;4.456;2023-01-24T01:09:02;3.70;99.90
9497;DHT22;4786;51.270;4.456;2023-01-24T01:11:28;3.70;99.90
9497;DHT22;4786;51.270;4.456;2023-01-24T01:13:55;3.70;99.90
9497;DHT22;4786;51.270;4.456;2023-01-24T01:16:23;3.70;99.90
9497;DHT22;4786;51.270;4.456;2023-01-24T01:18:52;3.70;99.90
9497;DHT22;4786;51.270;4.456;2023-01-24T01:21:21;3.70;99.90
9497;DHT22;4786;51.270;4.456;2023-01-24T01:23:47;3.70;99.90
9497;DHT22;4786;51.270;4.456;2023-01-24T01:26:17;3.80;99.90
9497;DHT22;4786;51.270;4.456;2023-01-24T01:28:44;3.70;99.90
9497;DHT22;4786;51.270;4.456;2023-01-24T01:31:11;3.70;99.90
9497;DHT22;4786;51.270;4.456;2023-01-24T01:33:37;3.80;99.90
9497;DHT22;4786;51.270;4.456;2023-01-24T01:36:03;3.70;99.90
9497;DHT22;4786;51.270;4.456;2023-01-24T01:38:29;3.80;99.90
9497;DHT22;4786;51.270;4.456;2023-01-24T01:40:56;3.70;99.90
9497;DHT22;4786;51.270;4.456;2023-01-24T01:43:23;3.60;99.90
9497;DHT22;4786;51.270;4.456;2023-01-24T01:45:51;3.70;99.90
9497;DHT22;4786;51.270;4.456;2023-01-24T01:50:59;3.60;99.90
9497;DHT22;4786;51.270;4.456;2023-01-24T01:53:41;3.60;99.90
9497;DHT22;4786;51.270;4.456;2023-01-24T01:56:16;3.70;99.90
9497;DHT22;4786;51.270;4.456;2023-01-24T01:58:43;3.60;99.90
9497;DHT22;4786;51.270;4.456;2023-01-24T02:01:09;3.60;99.90
9497;DHT22;4786;51.270;4.456;2023-01-24T02:03:39;3.50;99.90
9497;DHT22;4786;51.270;4.456;2023-01-24T02:06:22;3.50;99.90
9497;DHT22;4786;51.270;4.456;2023-01-24T02:08:51;3.60;99.90
9497;DHT22;4786;51.270;4.456;2023-01-24T02:11:18;3.60;99.90
9497;DHT22;4786;51.270;4.456;2023-01-24T02:14:03;3.60;99.90
9497;DHT22;4786;51.270;4.456;2023-01-24T02:16:47;3.80;99.90
9497;DHT22;4786;51.270;4.456;2023-01-24T02:25:05;3.60;99.90
9497;DHT22;4786;51.270;4.456;2023-01-24T02:27:31;3.60;99.90
9497;DHT22;4786;51.270;4.456;2023-01-24T02:29:57;3.60;99.90
9497;DHT22;4786;51.270;4.456;2023-01-24T02:32:25;3.60;99.90
9497;DHT22;4786;51.270;4.456;2023-01-24T02:34:50;3.60;99.90
9497;DHT22;4786;51.270;4.456;2023-01-24T02:37:16;3.90;99.90
9497;DHT22;4786;51.270;4.456;2023-01-24T02:40:02;3.50;99.90
9497;DHT22;4786;51.270;4.456;2023-01-24T02:42:33;3.50;99.90
9497;DHT22;4786;51.270;4.456;2023-01-24T02:45:05;3.50;99.90
9497;DHT22;4786;51.270;4.456;2023-01-24T02:47:37;3.50;99.90
9497;DHT22;4786;51.270;4.456;2023-01-24T02:50:05;3.50;99.90
9497;DHT22;4786;51.270;4.456;2023-01-24T02:52:32;3.50;99.90
9497;DHT22;4786;51.270;4.456;2023-01-24T02:55:16;3.50;99.90
9497;DHT22;4786;51.270;4.456;2023-01-24T02:57:42;3.50;99.90
9497;DHT22;4786;51.270;4.456;2023-01-24T03:00:27;3.50;99.90
9497;DHT22;4786;51.270;4.456;2023-01-24T03:02:52;3.40;99.90
9497;DHT22;4786;51.270;4.456;2023-01-24T03:05:18;3.40;99.90
9497;DHT22;4786;51.270;4.456;2023-01-24T03:07:44;3.40;99.90
9497;DHT22;4786;51.270;4.456;2023-01-24T03:10:13;3.40;99.90
9497;DHT22;4786;51.270;4.456;2023-01-24T03:12:40;3.70;99.90
9497;DHT22;4786;51.270;4.456;2023-01-24T03:15:24;3.60;99.90
9497;DHT22;4786;51.270;4.456;2023-01-24T03:18:09;3.60;99.90
9497;DHT22;4786;51.270;4.456;2023-01-24T03:20:53;3.50;99.90
9497;DHT22;4786;51.270;4.456;2023-01-24T03:23:37;3.50;99.90
9497;DHT22;4786;51.270;4.456;2023-01-24T03:26:21;3.50;99.90
9497;DHT22;4786;51.270;4.456;2023-01-24T03:29:06;3.50;99.90
9497;DHT22;4786;51.270;4.456;2023-01-24T03:31:50;3.50;99.90
9497;DHT22;4786;51.270;4.456;2023-01-24T03:34:34;3.40;99.90
9497;DHT22;4786;51.270;4.456;2023-01-24T03:37:11;3.50;99.90
9497;DHT22;4786;51.270;4.456;2023-01-24T03:39:37;3.60;99.90
9497;DHT22;4786;51.270;4.456;2023-01-24T03:42:21;3.70;99.90
9497;DHT22;4786;51.270;4.456;2023-01-24T03:44:47;3.60;99.90
9497;DHT22;4786;51.270;4.456;2023-01-24T03:47:13;3.50;99.90
9497;DHT22;4786;51.270;4.456;2023-01-24T03:49:39;3.60;99.90
9497;DHT22;4786;51.270;4.456;2023-01-24T03:52:23;3.60;99.90
9497;DHT22;4786;51.270;4.456;2023-01-24T03:54:59;3.60;99.90
9497;DHT22;4786;51.270;4.456;2023-01-24T03:57:27;3.70;99.90
9497;DHT22;4786;51.270;4.456;2023-01-24T03:59:53;3.50;99.90
9497;DHT22;4786;51.270;4.456;2023-01-24T04:02:19;3.60;99.90
9497;DHT22;4786;51.270;4.456;2023-01-24T04:04:46;3.40;99.90
9497;DHT22;4786;51.270;4.456;2023-01-24T04:07:31;3.60;99.90
9497;DHT22;4786;51.270;4.456;2023-01-24T04:09:56;3.50;99.90
9497;DHT22;4786;51.270;4.456;2023-01-24T04:12:24;3.60;99.90
9497;DHT22;4786;51.270;4.456;2023-01-24T04:14:50;3.80;99.90
9497;DHT22;4786;51.270;4.456;2023-01-24T04:17:16;3.50;99.90
9497;DHT22;4786;51.270;4.456;2023-01-24T04:19:42;3.80;99.90
9497;DHT22;4786;51.270;4.456;2023-01-24T04:22:08;3.50;99.90
9497;DHT22;4786;51.270;4.456;2023-01-24T04:24:33;3.40;99.90
9497;DHT22;4786;51.270;4.456;2023-01-24T04:26:59;3.50;99.90
9497;DHT22;4786;51.270;4.456;2023-01-24T04:29:25;3.50;99.90
9497;DHT22;4786;51.270;4.456;2023-01-24T04:31:51;3.60;99.90
9497;DHT22;4786;51.270;4.456;2023-01-24T04:34:17;3.60;99.90
9497;DHT22;4786;51.270;4.456;2023-01-24T04:36:42;3.50;99.90
9497;DHT22;4786;51.270;4.456;2023-01-24T04:39:08;3.40;99.90
9497;DHT22;4786;51.270;4.456;2023-01-24T04:41:34;3.50;99.90
9497;DHT22;4786;51.270;4.456;2023-01-24T04:44:00;3.40;99.90
9497;DHT22;4786;51.270;4.456;2023-01-24T04:46:27;3.50;99.90
9497;DHT22;4786;51.270;4.456;2023-01-24T04:48:54;3.50;99.90
9497;DHT22;4786;51.270;4.456;2023-01-24T04:51:19;3.50;99.90
9497;DHT22;4786;51.270;4.456;2023-01-24T04:53:45;3.50;99.90
9497;DHT22;4786;51.270;4.456;2023-01-24T04:56:10;3.50;99.90
9497;DHT22;4786;51.270;4.456;2023-01-24T04:58:37;3.50;99.90
9497;DHT22;4786;51.270;4.456;2023-01-24T05:01:03;3.40;99.90
9497;DHT22;4786;51.270;4.456;2023-01-24T05:03:28;3.40;99.90
9497;DHT22;4786;51.270;4.456;2023-01-24T05:05:55;3.40;99.90
9497;DHT22;4786;51.270;4.456;2023-01-24T05:08:21;3.40;99.90
9497;DHT22;4786;51.270;4.456;2023-01-24T05:10:47;3.40;99.90
9497;DHT22;4786;51.270;4.456;2023-01-24T05:13:13;3.50;99.90
9497;DHT22;4786;51.270;4.456;2023-01-24T05:15:46;3.60;99.90
9497;DHT22;4786;51.270;4.456;2023-01-24T05:18:12;3.50;99.90
9497;DHT22;4786;51.270;4.456;2023-01-24T05:20:38;3.60;99.90
9497;DHT22;4786;51.270;4.456;2023-01-24T05:23:04;3.50;99.90
9497;DHT22;4786;51.270;4.456;2023-01-24T05:25:30;3.40;99.90
9497;DHT22;4786;51.270;4.456;2023-01-24T05:27:56;3.50;99.90
9497;DHT22;4786;51.270;4.456;2023-01-24T05:30:22;3.40;99.90
9497;DHT22;4786;51.270;4.456;2023-01-24T05:32:48;3.40;99.90
9497;DHT22;4786;51.270;4.456;2023-01-24T05:35:14;3.50;99.90
9497;DHT22;4786;51.270;4.456;2023-01-24T05:37:40;3.40;99.90
9497;DHT22;4786;51.270;4.456;2023-01-24T05:40:07;3.40;99.90
9497;DHT22;4786;51.270;4.456;2023-01-24T05:42:33;3.40;99.90
9497;DHT22;4786;51.270;4.456;2023-01-24T05:44:59;3.70;99.90
9497;DHT22;4786;51.270;4.456;2023-01-24T05:47:25;3.40;99.90
9497;DHT22;4786;51.270;4.456;2023-01-24T05:49:51;3.40;99.90
9497;DHT22;4786;51.270;4.456;2023-01-24T05:52:18;3.40;99.90
9497;DHT22;4786;51.270;4.456;2023-01-24T05:54:50;3.60;99.90
9497;DHT22;4786;51.270;4.456;2023-01-24T05:57:16;3.50;99.90
9497;DHT22;4786;51.270;4.456;2023-01-24T05:59:43;3.50;99.90
9497;DHT22;4786;51.270;4.456;2023-01-24T06:02:09;3.40;99.90
9497;DHT22;4786;51.270;4.456;2023-01-24T06:04:35;3.40;99.90
9497;DHT22;4786;51.270;4.456;2023-01-24T06:07:01;3.40;99.90
9497;DHT22;4786;51.270;4.456;2023-01-24T06:09:27;3.50;99.90
9497;DHT22;4786;51.270;4.456;2023-01-24T06:11:53;3.50;99.90
9497;DHT22;4786;51.270;4.456;2023-01-24T06:14:19;3.80;99.90
9497;DHT22;4786;51.270;4.456;2023-01-24T06:16:46;3.40;99.90
9497;DHT22;4786;51.270;4.456;2023-01-24T06:19:13;3.50;99.90
9497;DHT22;4786;51.270;4.456;2023-01-24T06:21:45;3.40;99.90
9497;DHT22;4786;51.270;4.456;2023-01-24T06:24:20;3.40;99.90
9497;DHT22;4786;51.270;4.456;2023-01-24T06:26:47;3.40;99.90
9497;DHT22;4786;51.270;4.456;2023-01-24T06:29:14;3.40;99.90
9497;DHT22;4786;51.270;4.456;2023-01-24T06:35:28;3.50;99.90
9497;DHT22;4786;51.270;4.456;2023-01-24T06:37:57;3.30;99.90
9497;DHT22;4786;51.270;4.456;2023-01-24T06:40:24;3.10;99.90
9497;DHT22;4786;51.270;4.456;2023-01-24T06:42:51;3.10;99.90
9497;DHT22;4786;51.270;4.456;2023-01-24T06:45:19;3.10;99.90
9497;DHT22;4786;51.270;4.456;2023-01-24T06:47:45;3.10;99.90
9497;DHT22;4786;51.270;4.456;2023-01-24T06:50:17;3.20;99.90
9497;DHT22;4786;51.270;4.456;2023-01-24T06:52:47;3.20;99.90
9497;DHT22;4786;51.270;4.456;2023-01-24T06:55:13;3.20;99.90
9497;DHT22;4786;51.270;4.456;2023-01-24T06:57:39;3.20;99.90
9497;DHT22;4786;51.270;4.456;2023-01-24T07:00:05;3.30;99.90
9497;DHT22;4786;51.270;4.456;2023-01-24T07:02:31;3.10;99.90
9497;DHT22;4786;51.270;4.456;2023-01-24T07:04:57;3.10;99.90
9497;DHT22;4786;51.270;4.456;2023-01-24T07:07:22;3.00;99.90
9497;DHT22;4786;51.270;4.456;2023-01-24T07:09:48;3.10;99.90
9497;DHT22;4786;51.270;4.456;2023-01-24T07:12:14;3.10;99.90
9497;DHT22;4786;51.270;4.456;2023-01-24T07:14:40;3.00;99.90
9497;DHT22;4786;51.270;4.456;2023-01-24T07:17:06;3.00;99.90
9497;DHT22;4786;51.270;4.456;2023-01-24T07:19:33;3.10;99.90
9497;DHT22;4786;51.270;4.456;2023-01-24T07:21:59;3.10;99.90
9497;DHT22;4786;51.270;4.456;2023-01-24T07:24:27;3.00;99.90
9497;DHT22;4786;51.270;4.456;2023-01-24T07:26:55;3.10;99.90
9497;DHT22;4786;51.270;4.456;2023-01-24T07:29:22;3.10;99.90
9497;DHT22;4786;51.270;4.456;2023-01-24T07:31:49;3.10;99.90
9497;DHT22;4786;51.270;4.456;2023-01-24T07:34:16;3.10;99.90
9497;DHT22;4786;51.270;4.456;2023-01-24T07:36:43;3.10;99.90
9497;DHT22;4786;51.270;4.456;2023-01-24T07:39:10;3.20;99.90
9497;DHT22;4786;51.270;4.456;2023-01-24T07:41:36;3.20;99.90
9497;DHT22;4786;51.270;4.456;2023-01-24T07:44:03;3.20;99.90
9497;DHT22;4786;51.270;4.456;2023-01-24T07:46:34;3.20;99.90
9497;DHT22;4786;51.270;4.456;2023-01-24T07:49:01;3.20;99.90
9497;DHT22;4786;51.270;4.456;2023-01-24T07:51:27;3.20;99.90
9497;DHT22;4786;51.270;4.456;2023-01-24T07:53:53;3.40;99.90
9497;DHT22;4786;51.270;4.456;2023-01-24T07:56:19;3.30;99.90
9497;DHT22;4786;51.270;4.456;2023-01-24T07:58:45;3.20;99.90
9497;DHT22;4786;51.270;4.456;2023-01-24T08:01:18;3.20;99.90
9497;DHT22;4786;51.270;4.456;2023-01-24T08:03:44;3.20;99.90
9497;DHT22;4786;51.270;4.456;2023-01-24T08:06:12;3.20;99.90
9497;DHT22;4786;51.270;4.456;2023-01-24T08:08:38;3.50;99.90
9497;DHT22;4786;51.270;4.456;2023-01-24T08:11:04;3.20;99.90
9497;DHT22;4786;51.270;4.456;2023-01-24T08:13:30;3.20;99.90
9497;DHT22;4786;51.270;4.456;2023-01-24T08:15:56;3.20;99.90
9497;DHT22;4786;51.270;4.456;2023-01-24T08:18:22;3.40;99.90
9497;DHT22;4786;51.270;4.456;2023-01-24T08:20:48;3.00;99.90
9497;DHT22;4786;51.270;4.456;2023-01-24T08:23:14;3.10;99.90
9497;DHT22;4786;51.270;4.456;2023-01-24T08:25:40;3.00;99.90
9497;DHT22;4786;51.270;4.456;2023-01-24T08:28:07;3.10;99.90
9497;DHT22;4786;51.270;4.456;2023-01-24T08:30:33;3.10;99.90
9497;DHT22;4786;51.270;4.456;2023-01-24T08:33:04;3.30;99.90
9497;DHT22;4786;51.270;4.456;2023-01-24T08:35:30;3.20;99.90
9497;DHT22;4786;51.270;4.456;2023-01-24T08:37:57;3.40;99.90
9497;DHT22;4786;51.270;4.456;2023-01-24T08:40:23;3.30;99.90
9497;DHT22;4786;51.270;4.456;2023-01-24T08:42:49;3.20;99.90
9497;DHT22;4786;51.270;4.456;2023-01-24T08:45:14;3.20;99.90
9497;DHT22;4786;51.270;4.456;2023-01-24T08:47:40;3.10;99.90
9497;DHT22;4786;51.270;4.456;2023-01-24T08:50:07;3.10;99.90
9497;DHT22;4786;51.270;4.456;2023-01-24T08:52:32;3.10;99.90
9497;DHT22;4786;51.270;4.456;2023-01-24T08:54:59;3.30;99.90
9497;DHT22;4786;51.270;4.456;2023-01-24T08:57:24;3.10;99.90
9497;DHT22;4786;51.270;4.456;2023-01-24T08:59:50;3.20;99.90
9497;DHT22;4786;51.270;4.456;2023-01-24T09:02:16;3.30;99.90
9497;DHT22;4786;51.270;4.456;2023-01-24T09:04:42;3.20;99.90
9497;DHT22;4786;51.270;4.456;2023-01-24T09:07:10;3.40;99.90
9497;DHT22;4786;51.270;4.456;2023-01-24T09:09:36;3.40;99.90
9497;DHT22;4786;51.270;4.456;2023-01-24T09:12:02;3.60;99.90
9497;DHT22;4786;51.270;4.456;2023-01-24T09:14:28;3.40;99.90
9497;DHT22;4786;51.270;4.456;2023-01-24T09:16:54;3.40;99.90
9497;DHT22;4786;51.270;4.456;2023-01-24T09:19:20;3.30;99.90
9497;DHT22;4786;51.270;4.456;2023-01-24T09:21:46;3.30;99.90
9497;DHT22;4786;51.270;4.456;2023-01-24T09:24:16;3.30;99.90
9497;DHT22;4786;51.270;4.456;2023-01-24T09:26:43;3.30;99.90
9497;DHT22;4786;51.270;4.456;2023-01-24T09:29:09;3.30;99.90
9497;DHT22;4786;51.270;4.456;2023-01-24T09:31:35;3.30;99.90
9497;DHT22;4786;51.270;4.456;2023-01-24T09:34:01;3.50;99.90
9497;DHT22;4786;51.270;4.456;2023-01-24T09:36:27;3.30;99.90
9497;DHT22;4786;51.270;4.456;2023-01-24T09:38:55;3.20;99.90
9497;DHT22;4786;51.270;4.456;2023-01-24T09:46:54;3.20;99.90
9497;DHT22;4786;51.270;4.456;2023-01-24T09:52:07;3.10;99.90
9497;DHT22;4786;51.270;4.456;2023-01-24T09:54:39;3.00;99.90
9497;DHT22;4786;51.270;4.456;2023-01-24T09:57:22;3.10;99.90
9497;DHT22;4786;51.270;4.456;2023-01-24T09:59:53;3.10;99.90
9497;DHT22;4786;51.270;4.456;2023-01-24T10:02:22;2.90;99.90
9497;DHT22;4786;51.270;4.456;2023-01-24T10:04:49;3.00;99.90
9497;DHT22;4786;51.270;4.456;2023-01-24T10:15:18;3.00;99.90
9497;DHT22;4786;51.270;4.456;2023-01-24T10:23:25;3.20;99.90
9497;DHT22;4786;51.270;4.456;2023-01-24T10:25:56;3.10;99.90
9497;DHT22;4786;51.270;4.456;2023-01-24T10:28:30;3.20;99.90
9497;DHT22;4786;51.270;4.456;2023-01-24T10:31:18;3.30;99.90
9497;DHT22;4786;51.270;4.456;2023-01-24T10:33:50;3.30;99.90
9497;DHT22;4786;51.270;4.456;2023-01-24T10:36:34;3.30;99.90
9497;DHT22;4786;51.270;4.456;2023-01-24T10:39:03;3.30;99.90
9497;DHT22;4786;51.270;4.456;2023-01-24T10:41:31;3.40;99.90
9497;DHT22;4786;51.270;4.456;2023-01-24T10:44:13;3.30;99.90
9497;DHT22;4786;51.270;4.456;2023-01-24T10:49:37;3.30;99.90
9497;DHT22;4786;51.270;4.456;2023-01-24T10:52:20;3.20;99.90
9497;DHT22;4786;51.270;4.456;2023-01-24T10:54:51;3.20;99.90
9497;DHT22;4786;51.270;4.456;2023-01-24T10:57:32;3.10;99.90
9497;DHT22;4786;51.270;4.456;2023-01-24T11:02:40;3.10;99.90
9497;DHT22;4786;51.270;4.456;2023-01-24T11:05:12;3.30;99.90
9497;DHT22;4786;51.270;4.456;2023-01-24T11:07:38;3.30;99.90
9497;DHT22;4786;51.270;4.456;2023-01-24T11:10:36;3.50;99.90
9497;DHT22;4786;51.270;4.456;2023-01-24T11:18:48;3.20;99.90
9497;DHT22;4786;51.270;4.456;2023-01-24T11:21:18;3.20;99.90
9497;DHT22;4786;51.270;4.456;2023-01-24T11:23:44;3.10;99.90
9497;DHT22;4786;51.270;4.456;2023-01-24T11:26:26;3.30;99.90
9497;DHT22;4786;51.270;4.456;2023-01-24T11:29:00;3.20;99.90
9497;DHT22;4786;51.270;4.456;2023-01-24T11:45:42;3.40;99.90
9497;DHT22;4786;51.270;4.456;2023-01-24T11:48:21;3.40;99.90
9497;DHT22;4786;51.270;4.456;2023-01-24T11:50:59;3.40;99.90
9497;DHT22;4786;51.270;4.456;2023-01-24T12:02:27;3.50;99.90
9497;DHT22;4786;51.270;4.456;2023-01-24T12:15:35;3.60;99.90
9497;DHT22;4786;51.270;4.456;2023-01-24T12:20:56;3.40;99.90
9497;DHT22;4786;51.270;4.456;2023-01-24T12:23:32;3.40;99.90
9497;DHT22;4786;51.270;4.456;2023-01-24T12:26:16;3.30;99.90
9497;DHT22;4786;51.270;4.456;2023-01-24T12:29:22;3.30;99.90
9497;DHT22;4786;51.270;4.456;2023-01-24T12:34:58;3.20;99.90
9497;DHT22;4786;51.270;4.456;2023-01-24T12:37:35;3.20;99.90
9497;DHT22;4786;51.270;4.456;2023-01-24T12:40:09;3.30;99.90
9497;DHT22;4786;51.270;4.456;2023-01-24T12:45:40;3.40;99.90
9497;DHT22;4786;51.270;4.456;2023-01-24T12:51:20;3.40;99.90
9497;DHT22;4786;51.270;4.456;2023-01-24T12:54:09;3.40;99.90
9497;DHT22;4786;51.270;4.456;2023-01-24T12:56:58;3.40;99.90
9497;DHT22;4786;51.270;4.456;2023-01-24T12:59:28;3.40;99.90
9497;DHT22;4786;51.270;4.456;2023-01-24T13:01:59;3.70;99.90
9497;DHT22;4786;51.270;4.456;2023-01-24T13:04:50;3.60;99.90
9497;DHT22;4786;51.270;4.456;2023-01-24T13:10:26;3.50;99.90
9497;DHT22;4786;51.270;4.456;2023-01-24T13:12:54;3.40;99.90
9497;DHT22;4786;51.270;4.456;2023-01-24T13:16:05;3.70;99.90
9497;DHT22;4786;51.270;4.456;2023-01-24T13:29:06;3.30;99.90
9497;DHT22;4786;51.270;4.456;2023-01-24T13:34:27;3.60;99.90
9497;DHT22;4786;51.270;4.456;2023-01-24T13:36:53;3.70;99.90
9497;DHT22;4786;51.270;4.456;2023-01-24T13:39:46;3.80;99.90
9497;DHT22;4786;51.270;4.456;2023-01-24T13:44:37;3.60;99.90
9497;DHT22;4786;51.270;4.456;2023-01-24T13:49:45;3.40;99.90
9497;DHT22;4786;51.270;4.456;2023-01-24T13:54:56;3.70;99.90
9497;DHT22;4786;51.270;4.456;2023-01-24T14:00:19;3.40;99.90
9497;DHT22;4786;51.270;4.456;2023-01-24T14:08:01;3.30;99.90
9497;DHT22;4786;51.270;4.456;2023-01-24T14:10:36;3.50;99.90
9497;DHT22;4786;51.270;4.456;2023-01-24T14:13:03;3.60;99.90
9497;DHT22;4786;51.270;4.456;2023-01-24T14:15:41;3.60;99.90
9497;DHT22;4786;51.270;4.456;2023-01-24T14:26:42;3.50;99.90
9497;DHT22;4786;51.270;4.456;2023-01-24T14:29:15;3.40;99.90
9497;DHT22;4786;51.270;4.456;2023-01-24T14:31:45;3.40;99.90
9497;DHT22;4786;51.270;4.456;2023-01-24T14:34:28;3.60;99.90
9497;DHT22;4786;51.270;4.456;2023-01-24T14:37:09;3.50;99.90
9497;DHT22;4786;51.270;4.456;2023-01-24T14:39:36;3.30;99.90
9497;DHT22;4786;51.270;4.456;2023-01-24T14:42:07;3.30;99.90
9497;DHT22;4786;51.270;4.456;2023-01-24T14:44:38;3.20;99.90
9497;DHT22;4786;51.270;4.456;2023-01-24T14:47:17;3.20;99.90
9497;DHT22;4786;51.270;4.456;2023-01-24T14:49:51;3.20;99.90
9497;DHT22;4786;51.270;4.456;2023-01-24T14:52:21;3.30;99.90
9497;DHT22;4786;51.270;4.456;2023-01-24T14:54:58;3.20;99.90
9497;DHT22;4786;51.270;4.456;2023-01-24T14:57:32;3.30;99.90
9497;DHT22;4786;51.270;4.456;2023-01-24T15:00:06;3.20;99.90
9497;DHT22;4786;51.270;4.456;2023-01-24T15:02:34;3.20;99.90
9497;DHT22;4786;51.270;4.456;2023-01-24T15:05:00;3.20;99.90
9497;DHT22;4786;51.270;4.456;2023-01-24T15:07:26;3.20;99.90
9497;DHT22;4786;51.270;4.456;2023-01-24T15:09:52;3.20;99.90
9497;DHT22;4786;51.270;4.456;2023-01-24T15:12:21;3.30;99.90
9497;DHT22;4786;51.270;4.456;2023-01-24T15:14:48;3.50;99.90
9497;DHT22;4786;51.270;4.456;2023-01-24T15:17:20;3.50;99.90
9497;DHT22;4786;51.270;4.456;2023-01-24T15:19:48;3.30;99.90
9497;DHT22;4786;51.270;4.456;2023-01-24T15:22:20;3.30;99.90
9497;DHT22;4786;51.270;4.456;2023-01-24T15:24:52;3.30;99.90
9497;DHT22;4786;51.270;4.456;2023-01-24T15:30:10;3.40;99.90
9497;DHT22;4786;51.270;4.456;2023-01-24T15:32:39;3.40;99.90
9497;DHT22;4786;51.270;4.456;2023-01-24T15:35:32;3.60;99.90
9497;DHT22;4786;51.270;4.456;2023-01-24T15:40:25;3.40;99.90
9497;DHT22;4786;51.270;4.456;2023-01-24T15:42:51;3.50;99.90
9497;DHT22;4786;51.270;4.456;2023-01-24T15:45:37;3.50;99.90
9497;DHT22;4786;51.270;4.456;2023-01-24T15:48:23;3.50;99.90
9497;DHT22;4786;51.270;4.456;2023-01-24T15:50:56;3.30;99.90
9497;DHT22;4786;51.270;4.456;2023-01-24T15:53:37;3.50;99.90
9497;DHT22;4786;51.270;4.456;2023-01-24T15:56:08;3.50;99.90
9497;DHT22;4786;51.270;4.456;2023-01-24T15:58:35;3.50;99.90
9497;DHT22;4786;51.270;4.456;2023-01-24T16:01:02;3.50;99.90
9497;DHT22;4786;51.270;4.456;2023-01-24T16:03:28;3.50;99.90
9497;DHT22;4786;51.270;4.456;2023-01-24T16:05:54;3.60;99.90
9497;DHT22;4786;51.270;4.456;2023-01-24T16:08:20;3.60;99.90
9497;DHT22;4786;51.270;4.456;2023-01-24T16:10:47;3.90;99.90
9497;DHT22;4786;51.270;4.456;2023-01-24T16:16:01;3.60;99.90
9497;DHT22;4786;51.270;4.456;2023-01-24T16:18:29;3.50;99.90
9497;DHT22;4786;51.270;4.456;2023-01-24T16:20:55;3.50;99.90
9497;DHT22;4786;51.270;4.456;2023-01-24T16:23:21;3.70;99.90
9497;DHT22;4786;51.270;4.456;2023-01-24T16:25:50;3.70;99.90
9497;DHT22;4786;51.270;4.456;2023-01-24T16:28:26;3.60;99.90
9497;DHT22;4786;51.270;4.456;2023-01-24T16:30:54;3.60;99.90
9497;DHT22;4786;51.270;4.456;2023-01-24T16:33:24;3.50;99.90
9497;DHT22;4786;51.270;4.456;2023-01-24T16:35:50;3.60;99.90
9497;DHT22;4786;51.270;4.456;2023-01-24T16:38:17;3.60;99.90
9497;DHT22;4786;51.270;4.456;2023-01-24T16:40:43;3.40;99.90
9497;DHT22;4786;51.270;4.456;2023-01-24T16:43:18;3.40;99.90
9497;DHT22;4786;51.270;4.456;2023-01-24T16:45:49;3.50;99.90
9497;DHT22;4786;51.270;4.456;2023-01-24T16:48:16;3.30;99.90
9497;DHT22;4786;51.270;4.456;2023-01-24T16:50:42;3.40;99.90
9497;DHT22;4786;51.270;4.456;2023-01-24T16:53:09;3.30;99.90
9497;DHT22;4786;51.270;4.456;2023-01-24T16:55:36;3.30;99.90
9497;DHT22;4786;51.270;4.456;2023-01-24T16:58:07;3.20;99.90
9497;DHT22;4786;51.270;4.456;2023-01-24T17:00:34;3.10;99.90
9497;DHT22;4786;51.270;4.456;2023-01-24T17:03:01;3.50;99.90
9497;DHT22;4786;51.270;4.456;2023-01-24T17:05:28;3.20;99.90
9497;DHT22;4786;51.270;4.456;2023-01-24T17:07:55;3.30;99.90
9497;DHT22;4786;51.270;4.456;2023-01-24T17:10:22;3.40;99.90
9497;DHT22;4786;51.270;4.456;2023-01-24T17:12:48;3.40;99.90
9497;DHT22;4786;51.270;4.456;2023-01-24T17:15:15;3.40;99.90
9497;DHT22;4786;51.270;4.456;2023-01-24T17:17:41;3.40;99.90
9497;DHT22;4786;51.270;4.456;2023-01-24T17:20:10;3.40;99.90
9497;DHT22;4786;51.270;4.456;2023-01-24T17:22:37;3.30;99.90
9497;DHT22;4786;51.270;4.456;2023-01-24T17:25:04;3.30;99.90
9497;DHT22;4786;51.270;4.456;2023-01-24T17:27:30;3.30;99.90
9497;DHT22;4786;51.270;4.456;2023-01-24T17:29:56;3.00;99.90
9497;DHT22;4786;51.270;4.456;2023-01-24T17:32:22;3.10;99.90
9497;DHT22;4786;51.270;4.456;2023-01-24T17:34:48;3.10;99.90
9497;DHT22;4786;51.270;4.456;2023-01-24T17:37:14;3.00;99.90
9497;DHT22;4786;51.270;4.456;2023-01-24T17:39:39;3.00;99.90
9497;DHT22;4786;51.270;4.456;2023-01-24T17:42:05;3.10;99.90
9497;DHT22;4786;51.270;4.456;2023-01-24T17:44:31;3.00;99.90
9497;DHT22;4786;51.270;4.456;2023-01-24T17:46:56;3.00;99.90
9497;DHT22;4786;51.270;4.456;2023-01-24T17:49:42;3.00;99.90
9497;DHT22;4786;51.270;4.456;2023-01-24T17:52:07;3.10;99.90
9497;DHT22;4786;51.270;4.456;2023-01-24T17:54:33;2.90;99.90
9497;DHT22;4786;51.270;4.456;2023-01-24T17:56:59;2.90;99.90
9497;DHT22;4786;51.270;4.456;2023-01-24T17:59:25;2.90;99.90
9497;DHT22;4786;51.270;4.456;2023-01-24T18:01:51;3.00;99.90
9497;DHT22;4786;51.270;4.456;2023-01-24T18:04:17;2.90;99.90
9497;DHT22;4786;51.270;4.456;2023-01-24T18:06:43;3.00;99.90
9497;DHT22;4786;51.270;4.456;2023-01-24T18:09:09;3.00;99.90
9497;DHT22;4786;51.270;4.456;2023-01-24T18:11:36;3.00;99.90
9497;DHT22;4786;51.270;4.456;2023-01-24T18:14:02;3.10;99.90
9497;DHT22;4786;51.270;4.456;2023-01-24T18:16:29;3.20;99.90
9497;DHT22;4786;51.270;4.456;2023-01-24T18:18:55;3.00;99.90
9497;DHT22;4786;51.270;4.456;2023-01-24T18:21:25;3.00;99.90
9497;DHT22;4786;51.270;4.456;2023-01-24T18:26:18;2.80;99.90
9497;DHT22;4786;51.270;4.456;2023-01-24T18:28:44;3.10;99.90
9497;DHT22;4786;51.270;4.456;2023-01-24T18:31:10;2.90;99.90
9497;DHT22;4786;51.270;4.456;2023-01-24T18:33:37;2.90;99.90
9497;DHT22;4786;51.270;4.456;2023-01-24T18:36:08;2.80;99.90
9497;DHT22;4786;51.270;4.456;2023-01-24T18:38:34;2.90;99.90
9497;DHT22;4786;51.270;4.456;2023-01-24T18:41:00;3.00;99.90
9497;DHT22;4786;51.270;4.456;2023-01-24T18:43:26;2.90;99.90
9497;DHT22;4786;51.270;4.456;2023-01-24T18:45:51;2.90;99.90
9497;DHT22;4786;51.270;4.456;2023-01-24T18:48:17;3.00;99.90
9497;DHT22;4786;51.270;4.456;2023-01-24T18:50:43;3.10;99.90
9497;DHT22;4786;51.270;4.456;2023-01-24T18:53:09;3.00;99.90